createdAt,value
2023-01-13T00:00:26.608Z,13.52
2023-01-13T00:04:31.894Z,7.25
2023-01-13T00:08:34.195Z,6.95
2023-01-13T00:12:39.838Z,6.85
2023-01-13T00:16:41.792Z,9.27
2023-01-13T00:20:43.769Z,6.35
2023-01-13T00:24:45.819Z,4.93
2023-01-13T00:28:48.952Z,3.55
2023-01-13T00:32:50.999Z,5.38
2023-01-13T00:36:53.140Z,7.13
2023-01-13T00:41:00.386Z,5.82
2023-01-13T00:45:02.467Z,5.47
2023-01-13T00:49:04.868Z,4.65
2023-01-13T00:53:06.931Z,6.90
2023-01-13T00:57:09.185Z,7.57
2023-01-13T01:01:20.521Z,7.10
2023-01-13T01:05:22.780Z,4.90
2023-01-13T01:09:26.692Z,9.00
2023-01-13T01:13:28.923Z,5.53
2023-01-13T01:17:31.015Z,6.43
2023-01-13T01:21:33.582Z,9.43
2023-01-13T01:25:35.639Z,6.68
2023-01-13T01:29:37.834Z,8.02
2023-01-13T01:33:41.253Z,6.07
2023-01-13T01:37:43.272Z,7.10
2023-01-13T01:42:05.199Z,7.38
2023-01-13T01:46:07.659Z,7.18
2023-01-13T01:50:10.590Z,6.82
2023-01-13T01:54:19.955Z,7.65
2023-01-13T01:58:27.758Z,6.80
2023-01-13T02:02:30.912Z,5.07
2023-01-13T02:06:33.163Z,6.22
2023-01-13T02:10:35.555Z,6.10
2023-01-13T02:14:39.422Z,6.95
2023-01-13T02:19:02.972Z,7.63
2023-01-13T02:24:02.789Z,7.00
2023-01-13T02:28:26.655Z,7.75
2023-01-13T02:32:49.589Z,6.40
2023-01-13T02:37:07.947Z,7.28
2023-01-13T02:41:37.244Z,5.22
2023-01-13T02:46:06.817Z,7.60
2023-01-13T02:50:17.519Z,10.55
2023-01-13T02:54:25.767Z,6.18
2023-01-13T02:58:29.726Z,7.63
2023-01-13T03:02:32.293Z,8.30
2023-01-13T03:07:13.153Z,6.20
2023-01-13T03:11:23.010Z,6.90
2023-01-13T03:15:46.079Z,5.63
2023-01-13T03:20:06.646Z,5.25
2023-01-13T03:24:25.805Z,6.88
2023-01-13T03:28:35.238Z,7.00
2023-01-13T03:32:41.269Z,5.90
2023-01-13T03:36:47.790Z,6.20
2023-01-13T03:40:58.361Z,6.13
2023-01-13T03:45:10.115Z,5.47
2023-01-13T03:49:15.480Z,6.22
2023-01-13T03:53:30.233Z,6.22
2023-01-13T04:01:46.020Z,8.73
2023-01-13T04:05:53.648Z,10.75
2023-01-13T04:10:02.819Z,6.57
2023-01-13T04:14:09.282Z,6.35
2023-01-13T04:18:15.895Z,6.07
2023-01-13T04:22:18.041Z,6.03
2023-01-13T04:26:20.117Z,4.88
2023-01-13T04:30:22.094Z,5.97
2023-01-13T04:34:25.139Z,6.55
2023-01-13T04:38:28.003Z,5.37
2023-01-13T04:42:30.042Z,5.88
2023-01-13T04:46:32.335Z,10.13
2023-01-13T04:50:34.599Z,4.80
2023-01-13T04:54:36.723Z,8.65
2023-01-13T04:58:38.796Z,5.45
2023-01-13T05:02:41.709Z,6.95
2023-01-13T05:06:43.884Z,8.63
2023-01-13T05:10:46.067Z,6.32
2023-01-13T05:15:07.113Z,6.32
2023-01-13T05:19:09.205Z,6.93
2023-01-13T05:23:30.549Z,5.38
2023-01-13T05:27:33.852Z,5.32
2023-01-13T05:31:36.052Z,6.47
2023-01-13T05:35:40.058Z,7.25
2023-01-13T05:40:01.823Z,4.68
2023-01-13T05:44:04.163Z,7.30
2023-01-13T05:48:06.284Z,7.82
2023-01-13T05:52:08.399Z,6.53
2023-01-13T05:56:11.265Z,7.20
2023-01-13T06:00:13.909Z,10.88
2023-01-13T06:04:16.395Z,7.10
2023-01-13T06:08:19.231Z,5.22
2023-01-13T06:12:21.336Z,6.97
2023-01-13T06:16:23.494Z,7.25
2023-01-13T06:20:25.990Z,9.13
2023-01-13T06:24:28.684Z,5.82
2023-01-13T06:28:30.788Z,9.23
2023-01-13T06:32:38.997Z,7.32
2023-01-13T06:36:48.990Z,7.93
2023-01-13T06:40:51.262Z,6.10
2023-01-13T06:44:53.568Z,6.88
2023-01-13T06:48:55.661Z,9.50
2023-01-13T06:52:57.814Z,6.28
2023-01-13T06:56:59.963Z,6.72
2023-01-13T07:01:02.360Z,7.70
2023-01-13T07:05:04.788Z,8.70
2023-01-13T07:09:07.086Z,8.65
2023-01-13T07:13:27.614Z,8.70
2023-01-13T07:17:30.036Z,7.45
2023-01-13T07:21:32.022Z,6.20
2023-01-13T07:25:35.272Z,8.38
2023-01-13T07:29:37.863Z,15.45
2023-01-13T07:33:40.185Z,17.35
2023-01-13T07:37:42.466Z,8.57
2023-01-13T07:42:03.215Z,7.82
2023-01-13T07:46:06.568Z,8.07
2023-01-13T07:50:09.400Z,8.70
2023-01-13T07:54:11.601Z,10.98
2023-01-13T07:58:13.745Z,7.68
2023-01-13T08:02:16.093Z,7.82
2023-01-13T08:06:18.849Z,10.88
2023-01-13T08:10:20.939Z,9.20
2023-01-13T08:14:23.059Z,8.75
2023-01-13T08:18:25.289Z,7.35
2023-01-13T08:22:27.435Z,12.10
2023-01-13T08:26:29.824Z,17.30
2023-01-13T08:30:32.254Z,9.85
2023-01-13T08:34:36.466Z,10.48
2023-01-13T08:38:40.044Z,9.48
2023-01-13T08:42:42.299Z,13.10
2023-01-13T08:46:44.625Z,15.68
2023-01-13T08:50:46.709Z,12.95
2023-01-13T08:54:48.885Z,9.07
2023-01-13T08:58:51.129Z,11.05
2023-01-13T09:02:53.290Z,11.93
2023-01-13T09:06:55.868Z,9.38
2023-01-13T09:10:58.139Z,10.15
2023-01-13T09:15:01.547Z,10.68
2023-01-13T09:19:03.706Z,8.95
2023-01-13T09:35:30.753Z,12.45
2023-01-13T09:39:34.233Z,8.90
2023-01-13T09:43:54.441Z,13.18
2023-01-13T09:48:15.323Z,8.30
2023-01-13T09:52:26.644Z,11.75
2023-01-13T09:56:29.156Z,10.15
2023-01-13T10:00:45.099Z,9.38
2023-01-13T10:05:10.533Z,9.93
2023-01-13T10:09:26.606Z,16.05
2023-01-13T10:13:30.810Z,15.23
2023-01-13T10:17:47.598Z,23.67
2023-01-13T10:22:02.134Z,12.35
2023-01-13T10:26:29.010Z,11.23
2023-01-13T10:30:39.315Z,33.47
2023-01-13T10:34:57.511Z,14.02
2023-01-13T10:39:14.843Z,10.95
2023-01-13T10:43:17.218Z,14.93
2023-01-13T10:47:32.061Z,11.38
2023-01-13T10:51:40.361Z,12.98
2023-01-13T10:55:42.724Z,8.43
2023-01-13T10:59:44.942Z,13.38
2023-01-13T11:03:48.290Z,9.45
2023-01-13T11:07:58.130Z,10.63
2023-01-13T11:12:00.462Z,13.27
2023-01-13T11:16:12.706Z,12.38
2023-01-13T11:20:29.675Z,23.90
2023-01-13T11:24:44.925Z,14.75
2023-01-13T11:29:22.431Z,15.75
2023-01-13T11:34:03.625Z,14.88
2023-01-13T11:38:34.899Z,15.20
2023-01-13T11:42:45.658Z,13.90
2023-01-13T11:46:52.357Z,13.88
2023-01-13T11:51:08.042Z,14.23
2023-01-13T11:55:22.822Z,19.48
2023-01-13T11:59:52.477Z,27.15
2023-01-13T12:04:15.879Z,14.45
2023-01-13T12:08:48.429Z,15.38
2023-01-13T12:13:19.459Z,15.20
2023-01-13T12:17:27.110Z,12.27
2023-01-13T12:21:41.560Z,13.10
2023-01-13T12:25:49.769Z,13.65
2023-01-13T12:29:55.707Z,15.02
2023-01-13T12:34:09.343Z,9.20
2023-01-13T12:38:30.220Z,12.15
2023-01-13T12:43:29.097Z,12.52
2023-01-13T12:47:37.565Z,17.55
2023-01-13T12:51:51.969Z,12.88
2023-01-13T12:55:54.209Z,14.38
2023-01-13T12:59:59.308Z,14.75
2023-01-13T13:04:13.268Z,14.55
2023-01-13T13:08:15.655Z,13.97
2023-01-13T13:13:01.451Z,17.13
2023-01-13T13:17:28.570Z,15.00
2023-01-13T13:22:09.361Z,13.43
2023-01-13T13:26:46.119Z,11.30
2023-01-13T13:31:06.276Z,15.88
2023-01-13T13:35:28.414Z,14.45
2023-01-13T13:39:54.241Z,15.25
2023-01-13T13:44:21.160Z,20.67
2023-01-13T13:48:29.339Z,17.25
2023-01-13T13:52:54.320Z,17.02
2023-01-13T14:01:00.486Z,18.27
2023-01-13T14:05:15.079Z,17.58
2023-01-13T14:09:19.131Z,19.95
2023-01-13T14:13:30.830Z,19.70
2023-01-13T14:17:34.635Z,17.30
2023-01-13T14:21:36.880Z,18.58
2023-01-13T14:25:47.756Z,19.17
2023-01-13T14:29:53.915Z,17.90
2023-01-13T14:33:58.531Z,17.25
2023-01-13T14:42:13.579Z,23.60
2023-01-13T14:46:17.820Z,16.08
2023-01-13T14:50:28.230Z,18.35
2023-01-13T14:54:45.761Z,18.50
2023-01-13T14:58:49.897Z,18.10
2023-01-13T15:02:58.427Z,18.67
2023-01-13T15:07:01.637Z,17.48
2023-01-13T15:11:06.696Z,18.10
2023-01-13T15:15:34.657Z,38.00
2023-01-13T15:19:36.736Z,25.67
2023-01-13T15:23:41.180Z,22.65
2023-01-13T15:27:45.304Z,21.83
2023-01-13T15:31:47.593Z,29.42
2023-01-13T15:35:52.082Z,24.63
2023-01-13T15:44:46.983Z,31.13
2023-01-13T15:48:53.020Z,28.90
2023-01-13T15:52:57.808Z,18.63
2023-01-13T15:57:02.784Z,20.08
2023-01-13T16:01:05.384Z,23.88
2023-01-13T16:05:08.960Z,29.77
2023-01-13T16:09:14.033Z,19.48
2023-01-13T16:13:17.999Z,18.58
2023-01-13T16:17:23.914Z,18.90
2023-01-13T16:21:27.183Z,29.33
2023-01-13T16:25:29.437Z,20.90
2023-01-13T16:29:31.541Z,31.77
2023-01-13T16:33:33.895Z,36.83
2023-01-13T16:37:36.103Z,35.47
2023-01-13T16:42:02.227Z,23.38
2023-01-13T16:46:34.078Z,26.58
2023-01-13T16:50:41.401Z,25.35
2023-01-13T16:54:43.684Z,24.98
2023-01-13T16:58:45.842Z,31.98
2023-01-13T17:02:48.447Z,25.35
2023-01-13T17:06:58.606Z,18.23
2023-01-13T17:11:01.020Z,19.27
2023-01-13T17:15:04.380Z,23.67
2023-01-13T17:19:07.070Z,24.77
2023-01-13T17:23:09.277Z,18.65
2023-01-13T17:27:11.585Z,26.25
2023-01-13T17:31:13.791Z,31.35
2023-01-13T17:35:19.043Z,30.45
2023-01-13T17:39:24.548Z,25.02
2023-01-13T17:43:26.893Z,29.45
2023-01-13T17:47:29.046Z,37.22
2023-01-13T17:51:31.246Z,31.52
2023-01-13T17:55:33.437Z,33.97
2023-01-13T17:59:35.730Z,32.10
2023-01-13T18:03:39.261Z,27.85
2023-01-13T18:07:41.423Z,28.00
2023-01-13T18:11:44.251Z,26.80
2023-01-13T18:15:47.108Z,29.60
2023-01-13T18:20:08.705Z,21.15
2023-01-13T18:24:35.508Z,21.15
2023-01-13T18:28:37.673Z,26.95
2023-01-13T18:32:39.783Z,18.85
2023-01-13T18:36:41.998Z,23.27
2023-01-13T18:40:44.924Z,22.58
2023-01-13T18:44:47.074Z,19.30
2023-01-13T18:48:49.210Z,18.17
2023-01-13T18:52:52.073Z,32.83
2023-01-13T18:56:54.303Z,22.23
2023-01-13T19:01:03.646Z,23.50
2023-01-13T19:05:06.874Z,21.15
2023-01-13T19:09:11.183Z,26.88
2023-01-13T19:13:16.355Z,24.15
2023-01-13T19:17:19.223Z,23.45
2023-01-13T19:21:21.723Z,27.42
2023-01-13T19:25:24.759Z,20.33
2023-01-13T19:29:27.059Z,23.42
2023-01-13T19:33:31.140Z,25.25
2023-01-13T19:37:34.377Z,21.50
2023-01-13T19:41:55.413Z,26.67
2023-01-13T19:45:57.609Z,24.67
2023-01-13T19:50:03.636Z,36.38
2023-01-13T19:54:05.814Z,23.80
2023-01-13T19:58:09.326Z,25.50
2023-01-13T20:02:27.885Z,30.80
2023-01-13T20:06:32.856Z,35.30
2023-01-13T20:14:37.142Z,31.33
2023-01-13T20:18:39.369Z,23.73
2023-01-13T20:22:41.559Z,25.00
2023-01-13T20:26:45.429Z,25.92
2023-01-13T20:30:49.332Z,20.85
2023-01-13T20:34:51.929Z,26.08
2023-01-13T20:39:02.103Z,29.20
2023-01-13T20:43:05.531Z,38.80
2023-01-13T20:47:09.288Z,27.75
2023-01-13T20:51:12.276Z,30.15
2023-01-13T20:55:14.788Z,35.10
2023-01-13T20:59:17.101Z,26.60
2023-01-13T21:03:20.091Z,30.65
2023-01-13T21:07:22.513Z,38.72
2023-01-13T21:11:45.285Z,44.70
2023-01-13T21:15:48.430Z,32.10
2023-01-13T21:19:50.698Z,32.92
2023-01-13T21:23:53.618Z,31.67
2023-01-13T21:28:04.304Z,34.28
2023-01-13T21:32:06.741Z,28.58
2023-01-13T21:36:11.875Z,30.05
2023-01-13T21:40:14.940Z,26.77
2023-01-13T21:44:38.618Z,28.50
2023-01-13T21:48:40.793Z,26.58
2023-01-13T21:52:43.401Z,31.70
2023-01-13T21:56:45.523Z,31.60
2023-01-13T22:00:49.364Z,35.60
2023-01-13T22:04:52.319Z,34.53
2023-01-13T22:08:55.741Z,32.78
2023-01-13T22:13:21.007Z,29.25
2023-01-13T22:17:25.375Z,32.92
2023-01-13T22:21:27.423Z,30.40
2023-01-13T22:25:30.371Z,26.67
2023-01-13T22:29:32.452Z,24.65
2023-01-13T22:33:34.555Z,22.13
2023-01-13T22:37:36.712Z,43.38
2023-01-13T22:41:38.838Z,32.17
2023-01-13T22:45:40.953Z,27.30
2023-01-13T22:49:47.689Z,26.88
2023-01-13T22:53:50.291Z,33.25
2023-01-13T22:57:53.164Z,25.35
2023-01-13T23:01:55.195Z,31.73
2023-01-13T23:05:57.920Z,23.67
2023-01-13T23:10:00.177Z,30.75
2023-01-13T23:14:05.179Z,34.53
2023-01-13T23:18:07.280Z,26.95
2023-01-13T23:22:09.701Z,32.65
2023-01-13T23:26:12.730Z,29.42
2023-01-13T23:30:14.927Z,40.72
2023-01-13T23:34:17.075Z,30.00
2023-01-13T23:38:19.135Z,32.65
2023-01-13T23:42:21.312Z,33.22
2023-01-13T23:46:23.820Z,34.80
2023-01-13T23:50:25.920Z,35.35
2023-01-13T23:54:28.043Z,41.17
2023-01-13T23:58:31.275Z,42.90
